sensor_id;sensor_type;location;lat;lon;timestamp;P1;durP1;ratioP1;P2;durP2;ratioP2
50900;SDS011;36879;51.416;6.678;2022-10-17T00:02:18;10.13;;;7.47;;
50900;SDS011;36879;51.416;6.678;2022-10-17T00:04:44;11.43;;;7.68;;
50900;SDS011;36879;51.416;6.678;2022-10-17T00:07:09;12.45;;;8.10;;
50900;SDS011;36879;51.416;6.678;2022-10-17T00:09:35;14.15;;;8.85;;
50900;SDS011;36879;51.416;6.678;2022-10-17T00:12:02;18.73;;;10.75;;
50900;SDS011;36879;51.416;6.678;2022-10-17T00:14:28;15.95;;;9.40;;
50900;SDS011;36879;51.416;6.678;2022-10-17T00:16:54;20.40;;;11.45;;
50900;SDS011;36879;51.416;6.678;2022-10-17T00:19:20;23.83;;;12.63;;
50900;SDS011;36879;51.416;6.678;2022-10-17T00:21:47;24.13;;;13.02;;
50900;SDS011;36879;51.416;6.678;2022-10-17T00:24:13;24.55;;;14.32;;
50900;SDS011;36879;51.416;6.678;2022-10-17T00:26:39;23.05;;;13.52;;
50900;SDS011;36879;51.416;6.678;2022-10-17T00:29:05;20.90;;;12.82;;
50900;SDS011;36879;51.416;6.678;2022-10-17T00:31:31;24.63;;;12.93;;
50900;SDS011;36879;51.416;6.678;2022-10-17T00:33:57;21.35;;;12.75;;
50900;SDS011;36879;51.416;6.678;2022-10-17T00:36:26;26.52;;;14.65;;
50900;SDS011;36879;51.416;6.678;2022-10-17T00:38:53;22.13;;;12.80;;
50900;SDS011;36879;51.416;6.678;2022-10-17T00:41:21;18.77;;;13.10;;
50900;SDS011;36879;51.416;6.678;2022-10-17T00:46:19;21.40;;;13.00;;
50900;SDS011;36879;51.416;6.678;2022-10-17T00:48:45;20.77;;;12.75;;
50900;SDS011;36879;51.416;6.678;2022-10-17T00:51:13;19.83;;;12.15;;
50900;SDS011;36879;51.416;6.678;2022-10-17T00:53:39;18.90;;;12.77;;
50900;SDS011;36879;51.416;6.678;2022-10-17T00:56:05;24.17;;;14.10;;
50900;SDS011;36879;51.416;6.678;2022-10-17T00:58:31;28.10;;;15.68;;
50900;SDS011;36879;51.416;6.678;2022-10-17T01:00:57;28.05;;;16.98;;
50900;SDS011;36879;51.416;6.678;2022-10-17T01:03:23;28.00;;;18.58;;
50900;SDS011;36879;51.416;6.678;2022-10-17T01:05:49;33.10;;;19.85;;
50900;SDS011;36879;51.416;6.678;2022-10-17T01:08:15;27.58;;;18.27;;
50900;SDS011;36879;51.416;6.678;2022-10-17T01:13:24;32.83;;;21.38;;
50900;SDS011;36879;51.416;6.678;2022-10-17T01:15:58;33.33;;;20.73;;
50900;SDS011;36879;51.416;6.678;2022-10-17T01:31:15;27.13;;;16.27;;
50900;SDS011;36879;51.416;6.678;2022-10-17T01:38:45;28.27;;;15.65;;
50900;SDS011;36879;51.416;6.678;2022-10-17T01:43:39;18.92;;;12.38;;
50900;SDS011;36879;51.416;6.678;2022-10-17T01:46:09;19.08;;;11.27;;
50900;SDS011;36879;51.416;6.678;2022-10-17T01:48:37;19.10;;;11.43;;
50900;SDS011;36879;51.416;6.678;2022-10-17T01:51:06;19.85;;;9.38;;
50900;SDS011;36879;51.416;6.678;2022-10-17T01:53:35;14.05;;;9.77;;
50900;SDS011;36879;51.416;6.678;2022-10-17T01:56:04;12.43;;;7.82;;
50900;SDS011;36879;51.416;6.678;2022-10-17T01:58:32;11.77;;;7.93;;
50900;SDS011;36879;51.416;6.678;2022-10-17T02:01:02;8.63;;;6.60;;
50900;SDS011;36879;51.416;6.678;2022-10-17T02:03:29;11.65;;;7.95;;
50900;SDS011;36879;51.416;6.678;2022-10-17T02:05:56;15.68;;;8.45;;
50900;SDS011;36879;51.416;6.678;2022-10-17T02:08:39;15.48;;;10.38;;
50900;SDS011;36879;51.416;6.678;2022-10-17T02:11:06;13.65;;;9.20;;
50900;SDS011;36879;51.416;6.678;2022-10-17T02:19:01;14.85;;;9.82;;
50900;SDS011;36879;51.416;6.678;2022-10-17T02:21:40;21.17;;;10.18;;
50900;SDS011;36879;51.416;6.678;2022-10-17T02:29:58;13.73;;;8.07;;
50900;SDS011;36879;51.416;6.678;2022-10-17T02:32:28;10.52;;;7.80;;
50900;SDS011;36879;51.416;6.678;2022-10-17T02:34:58;14.23;;;7.85;;
50900;SDS011;36879;51.416;6.678;2022-10-17T02:37:26;13.73;;;7.35;;
50900;SDS011;36879;51.416;6.678;2022-10-17T02:39:53;11.30;;;6.97;;
50900;SDS011;36879;51.416;6.678;2022-10-17T02:42:20;11.75;;;7.05;;
50900;SDS011;36879;51.416;6.678;2022-10-17T02:44:47;11.45;;;7.80;;
50900;SDS011;36879;51.416;6.678;2022-10-17T02:49:57;11.40;;;7.22;;
50900;SDS011;36879;51.416;6.678;2022-10-17T02:55:00;13.80;;;8.85;;
50900;SDS011;36879;51.416;6.678;2022-10-17T02:57:38;15.13;;;8.25;;
50900;SDS011;36879;51.416;6.678;2022-10-17T03:00:07;11.00;;;8.40;;
50900;SDS011;36879;51.416;6.678;2022-10-17T03:02:41;17.27;;;9.73;;
50900;SDS011;36879;51.416;6.678;2022-10-17T03:05:07;16.20;;;9.65;;
50900;SDS011;36879;51.416;6.678;2022-10-17T03:07:33;15.55;;;10.05;;
50900;SDS011;36879;51.416;6.678;2022-10-17T03:09:59;16.45;;;10.73;;
50900;SDS011;36879;51.416;6.678;2022-10-17T03:12:25;21.48;;;12.13;;
50900;SDS011;36879;51.416;6.678;2022-10-17T03:14:51;19.15;;;12.20;;
50900;SDS011;36879;51.416;6.678;2022-10-17T03:17:17;22.63;;;12.73;;
50900;SDS011;36879;51.416;6.678;2022-10-17T03:19:43;21.55;;;12.05;;
50900;SDS011;36879;51.416;6.678;2022-10-17T03:22:09;26.58;;;12.43;;
50900;SDS011;36879;51.416;6.678;2022-10-17T03:24:35;21.90;;;12.90;;
50900;SDS011;36879;51.416;6.678;2022-10-17T03:27:01;22.48;;;13.82;;
50900;SDS011;36879;51.416;6.678;2022-10-17T03:29:27;21.58;;;11.43;;
50900;SDS011;36879;51.416;6.678;2022-10-17T03:31:53;19.38;;;11.98;;
50900;SDS011;36879;51.416;6.678;2022-10-17T03:34:19;21.60;;;14.32;;
50900;SDS011;36879;51.416;6.678;2022-10-17T03:36:45;23.38;;;13.77;;
50900;SDS011;36879;51.416;6.678;2022-10-17T03:39:11;27.73;;;14.40;;
50900;SDS011;36879;51.416;6.678;2022-10-17T03:41:37;21.00;;;12.32;;
50900;SDS011;36879;51.416;6.678;2022-10-17T03:44:03;22.05;;;11.75;;
50900;SDS011;36879;51.416;6.678;2022-10-17T03:46:29;20.73;;;11.27;;
50900;SDS011;36879;51.416;6.678;2022-10-17T03:48:55;16.33;;;9.50;;
50900;SDS011;36879;51.416;6.678;2022-10-17T03:51:21;17.50;;;9.45;;
50900;SDS011;36879;51.416;6.678;2022-10-17T03:53:47;16.42;;;11.60;;
50900;SDS011;36879;51.416;6.678;2022-10-17T03:56:17;19.42;;;11.88;;
50900;SDS011;36879;51.416;6.678;2022-10-17T03:58:43;17.73;;;10.60;;
50900;SDS011;36879;51.416;6.678;2022-10-17T04:01:11;14.27;;;9.43;;
50900;SDS011;36879;51.416;6.678;2022-10-17T04:03:37;11.65;;;7.20;;
50900;SDS011;36879;51.416;6.678;2022-10-17T04:06:03;11.35;;;6.85;;
50900;SDS011;36879;51.416;6.678;2022-10-17T04:08:30;8.48;;;5.97;;
50900;SDS011;36879;51.416;6.678;2022-10-17T04:11:02;9.70;;;5.80;;
50900;SDS011;36879;51.416;6.678;2022-10-17T04:13:29;6.80;;;5.03;;
50900;SDS011;36879;51.416;6.678;2022-10-17T04:18:21;8.50;;;6.60;;
50900;SDS011;36879;51.416;6.678;2022-10-17T04:20:47;8.27;;;5.90;;
50900;SDS011;36879;51.416;6.678;2022-10-17T04:23:13;9.13;;;5.78;;
50900;SDS011;36879;51.416;6.678;2022-10-17T04:25:39;8.93;;;5.32;;
50900;SDS011;36879;51.416;6.678;2022-10-17T04:28:05;12.02;;;4.85;;
50900;SDS011;36879;51.416;6.678;2022-10-17T04:30:31;10.57;;;5.95;;
50900;SDS011;36879;51.416;6.678;2022-10-17T04:32:57;10.25;;;5.88;;
50900;SDS011;36879;51.416;6.678;2022-10-17T04:35:23;12.60;;;7.13;;
50900;SDS011;36879;51.416;6.678;2022-10-17T04:37:49;11.45;;;8.07;;
50900;SDS011;36879;51.416;6.678;2022-10-17T04:40:15;16.00;;;8.93;;
50900;SDS011;36879;51.416;6.678;2022-10-17T04:42:41;17.75;;;9.23;;
50900;SDS011;36879;51.416;6.678;2022-10-17T04:45:07;15.52;;;9.50;;
50900;SDS011;36879;51.416;6.678;2022-10-17T04:47:34;18.33;;;9.40;;
50900;SDS011;36879;51.416;6.678;2022-10-17T04:50:00;19.30;;;9.63;;
50900;SDS011;36879;51.416;6.678;2022-10-17T04:52:26;14.30;;;8.55;;
50900;SDS011;36879;51.416;6.678;2022-10-17T04:54:52;17.08;;;9.82;;
50900;SDS011;36879;51.416;6.678;2022-10-17T04:57:18;15.48;;;9.30;;
50900;SDS011;36879;51.416;6.678;2022-10-17T04:59:44;16.63;;;10.32;;
50900;SDS011;36879;51.416;6.678;2022-10-17T05:02:10;15.43;;;8.07;;
50900;SDS011;36879;51.416;6.678;2022-10-17T05:04:40;16.08;;;8.73;;
50900;SDS011;36879;51.416;6.678;2022-10-17T05:07:06;15.30;;;9.02;;
50900;SDS011;36879;51.416;6.678;2022-10-17T05:09:32;14.30;;;8.65;;
50900;SDS011;36879;51.416;6.678;2022-10-17T05:11:58;14.20;;;8.38;;
50900;SDS011;36879;51.416;6.678;2022-10-17T05:14:24;14.55;;;8.80;;
50900;SDS011;36879;51.416;6.678;2022-10-17T05:16:50;11.80;;;8.65;;
50900;SDS011;36879;51.416;6.678;2022-10-17T05:19:16;17.60;;;8.98;;
50900;SDS011;36879;51.416;6.678;2022-10-17T05:21:42;11.00;;;7.70;;
50900;SDS011;36879;51.416;6.678;2022-10-17T05:24:09;13.75;;;8.00;;
50900;SDS011;36879;51.416;6.678;2022-10-17T05:26:35;14.05;;;7.25;;
50900;SDS011;36879;51.416;6.678;2022-10-17T05:29:02;12.32;;;7.38;;
50900;SDS011;36879;51.416;6.678;2022-10-17T05:31:28;9.43;;;6.28;;
50900;SDS011;36879;51.416;6.678;2022-10-17T05:33:55;11.85;;;6.43;;
50900;SDS011;36879;51.416;6.678;2022-10-17T05:36:21;15.57;;;7.18;;
50900;SDS011;36879;51.416;6.678;2022-10-17T05:38:47;8.88;;;6.03;;
50900;SDS011;36879;51.416;6.678;2022-10-17T05:41:14;8.25;;;4.85;;
50900;SDS011;36879;51.416;6.678;2022-10-17T05:43:40;8.68;;;4.72;;
50900;SDS011;36879;51.416;6.678;2022-10-17T05:46:06;8.07;;;4.25;;
50900;SDS011;36879;51.416;6.678;2022-10-17T05:48:33;8.02;;;4.07;;
50900;SDS011;36879;51.416;6.678;2022-10-17T05:51:03;7.60;;;5.07;;
50900;SDS011;36879;51.416;6.678;2022-10-17T05:53:30;6.18;;;4.80;;
50900;SDS011;36879;51.416;6.678;2022-10-17T05:55:57;10.98;;;6.22;;
50900;SDS011;36879;51.416;6.678;2022-10-17T05:58:23;16.83;;;7.00;;
50900;SDS011;36879;51.416;6.678;2022-10-17T06:00:49;16.02;;;7.75;;
50900;SDS011;36879;51.416;6.678;2022-10-17T06:03:15;16.65;;;9.45;;
50900;SDS011;36879;51.416;6.678;2022-10-17T06:05:41;13.52;;;8.50;;
50900;SDS011;36879;51.416;6.678;2022-10-17T06:08:07;18.80;;;10.35;;
50900;SDS011;36879;51.416;6.678;2022-10-17T06:10:33;26.60;;;12.50;;
50900;SDS011;36879;51.416;6.678;2022-10-17T06:12:59;26.63;;;14.32;;
50900;SDS011;36879;51.416;6.678;2022-10-17T06:15:25;20.38;;;12.20;;
50900;SDS011;36879;51.416;6.678;2022-10-17T06:17:51;19.70;;;9.88;;
50900;SDS011;36879;51.416;6.678;2022-10-17T06:20:17;15.13;;;8.88;;
50900;SDS011;36879;51.416;6.678;2022-10-17T06:22:43;17.65;;;9.23;;
50900;SDS011;36879;51.416;6.678;2022-10-17T06:25:09;17.08;;;8.05;;
50900;SDS011;36879;51.416;6.678;2022-10-17T06:27:35;16.33;;;8.43;;
50900;SDS011;36879;51.416;6.678;2022-10-17T06:30:01;16.33;;;8.57;;
50900;SDS011;36879;51.416;6.678;2022-10-17T06:32:28;15.10;;;7.80;;
50900;SDS011;36879;51.416;6.678;2022-10-17T06:34:54;16.17;;;8.05;;
50900;SDS011;36879;51.416;6.678;2022-10-17T06:37:20;15.30;;;7.25;;
50900;SDS011;36879;51.416;6.678;2022-10-17T06:39:46;11.85;;;6.82;;
50900;SDS011;36879;51.416;6.678;2022-10-17T06:42:12;11.32;;;5.93;;
50900;SDS011;36879;51.416;6.678;2022-10-17T06:44:38;10.43;;;5.75;;
50900;SDS011;36879;51.416;6.678;2022-10-17T06:47:05;9.15;;;5.63;;
50900;SDS011;36879;51.416;6.678;2022-10-17T06:49:31;9.77;;;5.75;;
50900;SDS011;36879;51.416;6.678;2022-10-17T06:51:58;15.05;;;5.50;;
50900;SDS011;36879;51.416;6.678;2022-10-17T06:54:24;12.07;;;6.30;;
50900;SDS011;36879;51.416;6.678;2022-10-17T06:56:51;13.23;;;7.45;;
50900;SDS011;36879;51.416;6.678;2022-10-17T06:59:18;12.32;;;6.85;;
50900;SDS011;36879;51.416;6.678;2022-10-17T07:01:44;14.93;;;6.85;;
50900;SDS011;36879;51.416;6.678;2022-10-17T07:04:10;16.13;;;9.15;;
50900;SDS011;36879;51.416;6.678;2022-10-17T07:06:37;11.13;;;7.45;;
50900;SDS011;36879;51.416;6.678;2022-10-17T07:09:03;20.73;;;8.93;;
50900;SDS011;36879;51.416;6.678;2022-10-17T07:11:31;14.45;;;8.38;;
50900;SDS011;36879;51.416;6.678;2022-10-17T07:13:57;11.90;;;7.68;;
50900;SDS011;36879;51.416;6.678;2022-10-17T07:16:23;14.15;;;9.15;;
50900;SDS011;36879;51.416;6.678;2022-10-17T07:18:49;21.27;;;9.68;;
50900;SDS011;36879;51.416;6.678;2022-10-17T07:21:16;17.13;;;9.85;;
50900;SDS011;36879;51.416;6.678;2022-10-17T07:23:42;21.40;;;8.90;;
50900;SDS011;36879;51.416;6.678;2022-10-17T07:26:09;14.20;;;8.68;;
50900;SDS011;36879;51.416;6.678;2022-10-17T07:28:36;11.13;;;6.15;;
50900;SDS011;36879;51.416;6.678;2022-10-17T07:31:21;8.77;;;5.25;;
50900;SDS011;36879;51.416;6.678;2022-10-17T07:33:47;10.63;;;6.10;;
50900;SDS011;36879;51.416;6.678;2022-10-17T07:36:13;9.57;;;5.90;;
50900;SDS011;36879;51.416;6.678;2022-10-17T07:38:40;18.08;;;6.97;;
50900;SDS011;36879;51.416;6.678;2022-10-17T07:41:06;8.77;;;5.95;;
50900;SDS011;36879;51.416;6.678;2022-10-17T07:43:33;8.63;;;5.50;;
50900;SDS011;36879;51.416;6.678;2022-10-17T07:46:00;10.52;;;5.78;;
50900;SDS011;36879;51.416;6.678;2022-10-17T07:48:27;11.77;;;5.85;;
50900;SDS011;36879;51.416;6.678;2022-10-17T07:50:53;12.07;;;6.20;;
50900;SDS011;36879;51.416;6.678;2022-10-17T07:53:19;16.60;;;7.30;;
50900;SDS011;36879;51.416;6.678;2022-10-17T07:55:45;10.60;;;5.88;;
50900;SDS011;36879;51.416;6.678;2022-10-17T07:58:12;11.48;;;6.28;;
50900;SDS011;36879;51.416;6.678;2022-10-17T08:00:38;11.93;;;7.50;;
50900;SDS011;36879;51.416;6.678;2022-10-17T08:03:04;15.50;;;6.05;;
50900;SDS011;36879;51.416;6.678;2022-10-17T08:05:31;10.98;;;6.75;;
50900;SDS011;36879;51.416;6.678;2022-10-17T08:07:57;14.65;;;6.18;;
50900;SDS011;36879;51.416;6.678;2022-10-17T08:10:23;10.02;;;5.95;;
50900;SDS011;36879;51.416;6.678;2022-10-17T08:12:52;10.30;;;5.35;;
50900;SDS011;36879;51.416;6.678;2022-10-17T08:15:18;9.27;;;5.03;;
50900;SDS011;36879;51.416;6.678;2022-10-17T08:17:44;7.35;;;4.63;;
50900;SDS011;36879;51.416;6.678;2022-10-17T08:20:10;7.70;;;4.75;;
50900;SDS011;36879;51.416;6.678;2022-10-17T08:22:37;10.50;;;5.28;;
50900;SDS011;36879;51.416;6.678;2022-10-17T08:25:03;8.00;;;4.07;;
50900;SDS011;36879;51.416;6.678;2022-10-17T08:27:31;6.75;;;4.35;;
50900;SDS011;36879;51.416;6.678;2022-10-17T08:29:57;8.90;;;4.85;;
50900;SDS011;36879;51.416;6.678;2022-10-17T08:32:23;9.40;;;4.13;;
50900;SDS011;36879;51.416;6.678;2022-10-17T08:34:50;5.47;;;3.70;;
50900;SDS011;36879;51.416;6.678;2022-10-17T08:37:16;9.57;;;4.82;;
50900;SDS011;36879;51.416;6.678;2022-10-17T08:39:43;9.88;;;5.28;;
50900;SDS011;36879;51.416;6.678;2022-10-17T08:42:25;12.90;;;5.00;;
50900;SDS011;36879;51.416;6.678;2022-10-17T08:47:43;7.07;;;4.03;;
50900;SDS011;36879;51.416;6.678;2022-10-17T08:54:59;6.85;;;3.40;;
50900;SDS011;36879;51.416;6.678;2022-10-17T08:57:25;5.63;;;2.70;;
50900;SDS011;36879;51.416;6.678;2022-10-17T08:59:52;7.05;;;2.88;;
50900;SDS011;36879;51.416;6.678;2022-10-17T09:07:17;7.18;;;3.30;;
50900;SDS011;36879;51.416;6.678;2022-10-17T09:09:49;8.68;;;3.75;;
50900;SDS011;36879;51.416;6.678;2022-10-17T09:15:23;5.03;;;2.60;;
50900;SDS011;36879;51.416;6.678;2022-10-17T09:17:55;6.97;;;3.53;;
50900;SDS011;36879;51.416;6.678;2022-10-17T09:20:25;3.80;;;2.30;;
50900;SDS011;36879;51.416;6.678;2022-10-17T09:25:22;8.55;;;3.00;;
50900;SDS011;36879;51.416;6.678;2022-10-17T09:27:50;4.18;;;2.72;;
50900;SDS011;36879;51.416;6.678;2022-10-17T09:30:31;7.53;;;2.65;;
50900;SDS011;36879;51.416;6.678;2022-10-17T09:32:58;6.95;;;2.75;;
50900;SDS011;36879;51.416;6.678;2022-10-17T09:35:25;8.27;;;4.20;;
50900;SDS011;36879;51.416;6.678;2022-10-17T09:37:52;5.25;;;3.03;;
50900;SDS011;36879;51.416;6.678;2022-10-17T09:40:20;5.82;;;2.88;;
50900;SDS011;36879;51.416;6.678;2022-10-17T09:42:48;9.40;;;3.30;;
50900;SDS011;36879;51.416;6.678;2022-10-17T09:45:16;6.03;;;3.50;;
50900;SDS011;36879;51.416;6.678;2022-10-17T09:47:48;6.22;;;3.38;;
50900;SDS011;36879;51.416;6.678;2022-10-17T09:50:20;8.85;;;3.78;;
50900;SDS011;36879;51.416;6.678;2022-10-17T09:52:47;7.78;;;3.40;;
50900;SDS011;36879;51.416;6.678;2022-10-17T09:57:51;4.95;;;3.03;;
50900;SDS011;36879;51.416;6.678;2022-10-17T10:00:25;4.95;;;2.92;;
50900;SDS011;36879;51.416;6.678;2022-10-17T10:03:06;4.15;;;3.08;;
50900;SDS011;36879;51.416;6.678;2022-10-17T10:05:33;4.93;;;2.97;;
50900;SDS011;36879;51.416;6.678;2022-10-17T10:08:00;5.20;;;3.08;;
50900;SDS011;36879;51.416;6.678;2022-10-17T10:10:27;5.80;;;3.08;;
50900;SDS011;36879;51.416;6.678;2022-10-17T10:13:01;9.02;;;3.83;;
50900;SDS011;36879;51.416;6.678;2022-10-17T10:15:37;7.95;;;3.92;;
50900;SDS011;36879;51.416;6.678;2022-10-17T10:23:27;5.35;;;3.40;;
50900;SDS011;36879;51.416;6.678;2022-10-17T10:25:55;7.50;;;3.65;;
50900;SDS011;36879;51.416;6.678;2022-10-17T10:28:22;7.28;;;2.85;;
50900;SDS011;36879;51.416;6.678;2022-10-17T10:30:50;8.77;;;3.08;;
50900;SDS011;36879;51.416;6.678;2022-10-17T10:33:21;6.35;;;2.97;;
50900;SDS011;36879;51.416;6.678;2022-10-17T10:35:51;4.55;;;2.70;;
50900;SDS011;36879;51.416;6.678;2022-10-17T10:38:19;4.45;;;3.20;;
50900;SDS011;36879;51.416;6.678;2022-10-17T10:40:46;6.03;;;2.72;;
50900;SDS011;36879;51.416;6.678;2022-10-17T10:45:51;5.45;;;2.83;;
50900;SDS011;36879;51.416;6.678;2022-10-17T10:48:25;5.03;;;3.38;;
50900;SDS011;36879;51.416;6.678;2022-10-17T10:51:04;7.47;;;3.05;;
50900;SDS011;36879;51.416;6.678;2022-10-17T10:56:07;8.25;;;3.28;;
50900;SDS011;36879;51.416;6.678;2022-10-17T11:06:30;10.15;;;4.60;;
50900;SDS011;36879;51.416;6.678;2022-10-17T11:09:05;9.93;;;5.07;;
50900;SDS011;36879;51.416;6.678;2022-10-17T11:13:18;10.45;;;5.43;;
50900;SDS011;36879;51.416;6.678;2022-10-17T11:18:19;7.70;;;5.20;;
50900;SDS011;36879;51.416;6.678;2022-10-17T11:20:51;11.73;;;5.47;;
50900;SDS011;36879;51.416;6.678;2022-10-17T11:23:22;10.65;;;5.00;;
50900;SDS011;36879;51.416;6.678;2022-10-17T11:25:50;8.65;;;4.82;;
50900;SDS011;36879;51.416;6.678;2022-10-17T11:28:17;8.63;;;5.13;;
50900;SDS011;36879;51.416;6.678;2022-10-17T11:30:45;8.57;;;5.00;;
50900;SDS011;36879;51.416;6.678;2022-10-17T11:36:00;7.88;;;4.85;;
50900;SDS011;36879;51.416;6.678;2022-10-17T11:40:57;10.05;;;5.57;;
50900;SDS011;36879;51.416;6.678;2022-10-17T11:43:34;10.38;;;4.75;;
50900;SDS011;36879;51.416;6.678;2022-10-17T11:46:06;8.25;;;4.97;;
50900;SDS011;36879;51.416;6.678;2022-10-17T11:48:38;9.57;;;4.57;;
50900;SDS011;36879;51.416;6.678;2022-10-17T11:51:10;7.95;;;4.30;;
50900;SDS011;36879;51.416;6.678;2022-10-17T11:54:20;12.55;;;5.43;;
50900;SDS011;36879;51.416;6.678;2022-10-17T11:57:01;6.85;;;4.00;;
50900;SDS011;36879;51.416;6.678;2022-10-17T12:02:04;7.97;;;4.45;;
50900;SDS011;36879;51.416;6.678;2022-10-17T12:07:25;8.73;;;5.00;;
50900;SDS011;36879;51.416;6.678;2022-10-17T12:10:12;10.13;;;4.22;;
50900;SDS011;36879;51.416;6.678;2022-10-17T12:12:41;6.45;;;4.22;;
50900;SDS011;36879;51.416;6.678;2022-10-17T12:20:27;7.25;;;3.88;;
50900;SDS011;36879;51.416;6.678;2022-10-17T12:25:30;8.45;;;4.97;;
50900;SDS011;36879;51.416;6.678;2022-10-17T12:28:40;5.65;;;3.63;;
50900;SDS011;36879;51.416;6.678;2022-10-17T12:30:50;6.65;;;4.93;;
50900;SDS011;36879;51.416;6.678;2022-10-17T12:33:20;8.55;;;4.43;;
50900;SDS011;36879;51.416;6.678;2022-10-17T12:35:48;7.32;;;4.75;;
50900;SDS011;36879;51.416;6.678;2022-10-17T12:45:56;8.77;;;4.28;;
50900;SDS011;36879;51.416;6.678;2022-10-17T12:56:13;8.32;;;4.03;;
50900;SDS011;36879;51.416;6.678;2022-10-17T12:58:46;8.88;;;4.30;;
50900;SDS011;36879;51.416;6.678;2022-10-17T13:01:25;7.03;;;4.10;;
50900;SDS011;36879;51.416;6.678;2022-10-17T13:03:52;9.13;;;4.75;;
50900;SDS011;36879;51.416;6.678;2022-10-17T13:06:23;9.52;;;3.63;;
50900;SDS011;36879;51.416;6.678;2022-10-17T13:08:53;6.68;;;3.78;;
50900;SDS011;36879;51.416;6.678;2022-10-17T13:11:24;6.35;;;4.50;;
50900;SDS011;36879;51.416;6.678;2022-10-17T13:13:52;7.15;;;3.60;;
50900;SDS011;36879;51.416;6.678;2022-10-17T13:16:29;8.73;;;4.50;;
50900;SDS011;36879;51.416;6.678;2022-10-17T13:18:55;6.55;;;3.85;;
50900;SDS011;36879;51.416;6.678;2022-10-17T13:21:21;6.20;;;3.78;;
50900;SDS011;36879;51.416;6.678;2022-10-17T13:23:47;6.78;;;3.15;;
50900;SDS011;36879;51.416;6.678;2022-10-17T13:28:44;5.40;;;3.47;;
50900;SDS011;36879;51.416;6.678;2022-10-17T13:34:16;6.55;;;3.92;;
50900;SDS011;36879;51.416;6.678;2022-10-17T13:36:43;6.80;;;4.03;;
50900;SDS011;36879;51.416;6.678;2022-10-17T13:39:12;6.38;;;3.17;;
50900;SDS011;36879;51.416;6.678;2022-10-17T13:41:39;5.85;;;3.40;;
50900;SDS011;36879;51.416;6.678;2022-10-17T13:44:24;6.88;;;3.22;;
50900;SDS011;36879;51.416;6.678;2022-10-17T13:46:51;7.93;;;2.93;;
50900;SDS011;36879;51.416;6.678;2022-10-17T13:49:22;8.57;;;3.45;;
50900;SDS011;36879;51.416;6.678;2022-10-17T13:51:50;6.15;;;3.10;;
50900;SDS011;36879;51.416;6.678;2022-10-17T13:54:31;6.50;;;2.88;;
50900;SDS011;36879;51.416;6.678;2022-10-17T13:56:58;9.38;;;3.33;;
50900;SDS011;36879;51.416;6.678;2022-10-17T13:59:25;7.00;;;2.75;;
50900;SDS011;36879;51.416;6.678;2022-10-17T14:01:53;6.93;;;3.08;;
50900;SDS011;36879;51.416;6.678;2022-10-17T14:04:19;5.15;;;3.00;;
50900;SDS011;36879;51.416;6.678;2022-10-17T14:06:45;6.32;;;2.90;;
50900;SDS011;36879;51.416;6.678;2022-10-17T14:09:17;11.00;;;2.63;;
50900;SDS011;36879;51.416;6.678;2022-10-17T14:11:54;6.53;;;3.17;;
50900;SDS011;36879;51.416;6.678;2022-10-17T14:14:21;8.27;;;2.70;;
50900;SDS011;36879;51.416;6.678;2022-10-17T14:16:49;5.57;;;2.95;;
50900;SDS011;36879;51.416;6.678;2022-10-17T14:21:46;6.05;;;2.60;;
50900;SDS011;36879;51.416;6.678;2022-10-17T14:24:14;6.00;;;2.60;;
50900;SDS011;36879;51.416;6.678;2022-10-17T14:26:57;12.10;;;3.20;;
50900;SDS011;36879;51.416;6.678;2022-10-17T14:29:25;5.35;;;2.53;;
50900;SDS011;36879;51.416;6.678;2022-10-17T14:32:04;6.38;;;2.88;;
50900;SDS011;36879;51.416;6.678;2022-10-17T14:34:36;5.53;;;3.38;;
50900;SDS011;36879;51.416;6.678;2022-10-17T14:37:09;7.43;;;3.15;;
50900;SDS011;36879;51.416;6.678;2022-10-17T14:39:36;4.78;;;2.65;;
50900;SDS011;36879;51.416;6.678;2022-10-17T14:42:02;5.32;;;2.90;;
50900;SDS011;36879;51.416;6.678;2022-10-17T14:44:29;6.70;;;2.80;;
50900;SDS011;36879;51.416;6.678;2022-10-17T14:46:57;4.55;;;3.20;;
50900;SDS011;36879;51.416;6.678;2022-10-17T14:49:30;5.10;;;3.10;;
50900;SDS011;36879;51.416;6.678;2022-10-17T14:54:35;9.52;;;3.10;;
50900;SDS011;36879;51.416;6.678;2022-10-17T14:57:07;9.32;;;3.58;;
50900;SDS011;36879;51.416;6.678;2022-10-17T14:59:38;10.05;;;3.92;;
50900;SDS011;36879;51.416;6.678;2022-10-17T15:02:04;7.00;;;2.95;;
50900;SDS011;36879;51.416;6.678;2022-10-17T15:04:30;10.45;;;3.42;;
50900;SDS011;36879;51.416;6.678;2022-10-17T15:06:56;6.72;;;3.25;;
50900;SDS011;36879;51.416;6.678;2022-10-17T15:09:22;4.75;;;3.45;;
50900;SDS011;36879;51.416;6.678;2022-10-17T15:11:52;7.10;;;3.75;;
50900;SDS011;36879;51.416;6.678;2022-10-17T15:14:18;8.52;;;3.60;;
50900;SDS011;36879;51.416;6.678;2022-10-17T15:16:44;7.10;;;3.65;;
50900;SDS011;36879;51.416;6.678;2022-10-17T15:19:11;8.63;;;3.83;;
50900;SDS011;36879;51.416;6.678;2022-10-17T15:21:37;7.53;;;3.83;;
50900;SDS011;36879;51.416;6.678;2022-10-17T15:24:03;6.35;;;4.40;;
50900;SDS011;36879;51.416;6.678;2022-10-17T15:26:30;5.97;;;4.20;;
50900;SDS011;36879;51.416;6.678;2022-10-17T15:28:57;9.70;;;4.93;;
50900;SDS011;36879;51.416;6.678;2022-10-17T15:31:23;8.15;;;4.13;;
50900;SDS011;36879;51.416;6.678;2022-10-17T15:33:50;11.75;;;4.32;;
50900;SDS011;36879;51.416;6.678;2022-10-17T15:36:20;6.43;;;3.75;;
50900;SDS011;36879;51.416;6.678;2022-10-17T15:38:47;9.50;;;4.93;;
50900;SDS011;36879;51.416;6.678;2022-10-17T15:41:13;9.95;;;4.82;;
50900;SDS011;36879;51.416;6.678;2022-10-17T15:43:39;6.63;;;4.70;;
50900;SDS011;36879;51.416;6.678;2022-10-17T15:46:13;9.35;;;4.72;;
50900;SDS011;36879;51.416;6.678;2022-10-17T15:48:39;7.18;;;4.82;;
50900;SDS011;36879;51.416;6.678;2022-10-17T15:51:06;11.05;;;6.22;;
50900;SDS011;36879;51.416;6.678;2022-10-17T15:53:32;6.72;;;4.68;;
50900;SDS011;36879;51.416;6.678;2022-10-17T15:55:58;9.13;;;4.32;;
50900;SDS011;36879;51.416;6.678;2022-10-17T15:58:24;6.97;;;4.78;;
50900;SDS011;36879;51.416;6.678;2022-10-17T16:00:52;8.15;;;4.97;;
50900;SDS011;36879;51.416;6.678;2022-10-17T16:03:18;6.60;;;3.95;;
50900;SDS011;36879;51.416;6.678;2022-10-17T16:05:44;8.13;;;4.35;;
50900;SDS011;36879;51.416;6.678;2022-10-17T16:08:10;6.55;;;4.93;;
50900;SDS011;36879;51.416;6.678;2022-10-17T16:10:38;9.02;;;5.50;;
50900;SDS011;36879;51.416;6.678;2022-10-17T16:13:05;10.07;;;4.40;;
50900;SDS011;36879;51.416;6.678;2022-10-17T16:15:31;8.00;;;5.15;;
50900;SDS011;36879;51.416;6.678;2022-10-17T16:17:57;8.13;;;5.28;;
50900;SDS011;36879;51.416;6.678;2022-10-17T16:20:23;9.82;;;6.30;;
50900;SDS011;36879;51.416;6.678;2022-10-17T16:22:50;10.68;;;6.30;;
50900;SDS011;36879;51.416;6.678;2022-10-17T16:27:44;7.20;;;5.00;;
50900;SDS011;36879;51.416;6.678;2022-10-17T16:30:10;8.20;;;5.63;;
50900;SDS011;36879;51.416;6.678;2022-10-17T16:32:36;6.82;;;5.35;;
50900;SDS011;36879;51.416;6.678;2022-10-17T16:35:03;10.48;;;5.38;;
50900;SDS011;36879;51.416;6.678;2022-10-17T16:37:29;12.75;;;5.70;;
50900;SDS011;36879;51.416;6.678;2022-10-17T16:39:55;9.18;;;5.68;;
50900;SDS011;36879;51.416;6.678;2022-10-17T16:42:21;11.05;;;6.13;;
50900;SDS011;36879;51.416;6.678;2022-10-17T16:44:47;10.02;;;5.72;;
50900;SDS011;36879;51.416;6.678;2022-10-17T16:47:14;10.30;;;5.07;;
50900;SDS011;36879;51.416;6.678;2022-10-17T16:49:40;11.23;;;6.10;;
50900;SDS011;36879;51.416;6.678;2022-10-17T16:52:06;10.60;;;6.00;;
50900;SDS011;36879;51.416;6.678;2022-10-17T16:54:32;9.25;;;5.60;;
50900;SDS011;36879;51.416;6.678;2022-10-17T16:57:02;11.93;;;6.57;;
50900;SDS011;36879;51.416;6.678;2022-10-17T16:59:28;11.10;;;6.38;;